Wetterdaten: aktuell Donnerstag, 03.09.2026 14:20
Datum Zeit Arbeit-Z. Temp. A. Bod.+5cm Temp. A. min Temp. A. max Bl.Temp +1m BTemp -5cm BTemp -10cm BTemp -20cm BTemp -50cm Feuchte I. Feuchte A. BlattFeu +1m BFeucht -5cm BFeucht-10cm BFeucht-20cm BFeucht-50cm Luftdruck Regen Wind Richtung Richtung Sonnenschein ET UV Solar Taupunkt Windchill Windböen Empfang
03.09.2026 14:20 24,8 °C 27,8 °C 27,2 °C 27,7 °C 27,9 °C 22,2 °C 22,2 °C 20,6 °C 20,0 °C 20,6 °C 43 % 44 % 0 lf 200 cb 200 cb 200 cb 126 cb 1018,5 hPa 0,0 l/m² 5,4 km/h (1 Bft) W-SW 257 ° 60 min 0,356 mm 4,4 UV-I 766 W/m² 14,4 °C 27,8 °C 11,3 km/h (2 Bft) 96,36 %
03.09.2026 13:20 24,7 °C 26,2 °C 25,0 °C 25,8 °C 26,2 °C 22,2 °C 22,2 °C 20,0 °C 20,0 °C 20,6 °C 44 % 47 % 0 lf 200 cb 200 cb 200 cb 126 cb 1018,4 hPa 0,0 l/m² 4,1 km/h (1 Bft) SO 142 ° 60 min 0,381 mm 3,1 UV-I 454 W/m² 14,0 °C 26,2 °C 12,9 km/h (3 Bft) 93,22 %
03.09.2026 12:20 24,4 °C 26,6 °C 25,6 °C 25,7 °C 26,6 °C 21,1 °C 21,1 °C 19,4 °C 20,0 °C 20,6 °C 44 % 48 % 0 lf 200 cb 200 cb 200 cb 126 cb 1019,2 hPa 0,0 l/m² 4,8 km/h (1 Bft) SW 223 ° 60 min 0,381 mm 4,2 UV-I 747 W/m² 14,7 °C 26,6 °C 14,5 km/h (3 Bft) 97,66 %
03.09.2026 11:20 24,2 °C 25,2 °C 23,3 °C 25,0 °C 25,2 °C 20,0 °C 20,0 °C 19,4 °C 20,0 °C 20,6 °C 44 % 48 % 0 lf 200 cb 200 cb 200 cb 126 cb 1019,4 hPa 0,0 l/m² 3,0 km/h (1 Bft) S 171 ° 60 min 0,305 mm 3,1 UV-I 608 W/m² 13,4 °C 25,2 °C 9,7 km/h (2 Bft) 94,31 %
03.09.2026 10:20 24,2 °C 23,4 °C 21,7 °C 23,3 °C 23,4 °C 18,9 °C 18,9 °C 19,4 °C 20,0 °C 20,6 °C 47 % 54 % 0 lf 200 cb 200 cb 200 cb 126 cb 1019,6 hPa 0,0 l/m² 2,5 km/h (1 Bft) S-SW 213 ° 60 min 0,203 mm 2,0 UV-I 526 W/m² 13,6 °C 23,4 °C 12,9 km/h (3 Bft) 93,58 %
03.09.2026 09:20 24,2 °C 19,8 °C 18,9 °C 19,6 °C 19,8 °C 17,8 °C 17,8 °C 19,4 °C 20,0 °C 20,6 °C 46 % 68 % 0 lf 200 cb 200 cb 200 cb 126 cb 1019,8 hPa 0,0 l/m² 1,5 km/h (1 Bft) O-SO 113 ° 50 min 0,076 mm 1,0 UV-I 315 W/m² 13,7 °C 19,8 °C 4,8 km/h (1 Bft) 98,20 %
03.09.2026 08:20 24,4 °C 17,1 °C 15,6 °C 16,7 °C 17,1 °C 17,8 °C 17,8 °C 20,0 °C 20,0 °C 20,6 °C 46 % 74 % 0 lf 200 cb 200 cb 200 cb 125 cb 1019,5 hPa 0,0 l/m² 1,5 km/h (1 Bft) NW 317 ° 0 min 0,026 mm 0,0 UV-I 39 W/m² 12,4 °C 17,1 °C 6,4 km/h (2 Bft) 97,44 %
03.09.2026 07:20 24,7 °C 15,2 °C 13,9 °C 15,2 °C 15,2 °C 18,3 °C 18,3 °C 20,0 °C 20,0 °C 20,6 °C 47 % 80 % 0 lf 200 cb 200 cb 200 cb 125 cb 1019,6 hPa 0,0 l/m² 0,9 km/h (0 Bft) O-SO 109 ° 0 min 0,000 mm 0,0 UV-I 11 W/m² 11,8 °C 15,2 °C 4,8 km/h (1 Bft) 94,44 %
03.09.2026 06:20 24,8 °C 15,9 °C 14,4 °C 15,9 °C 16,0 °C 18,3 °C 18,3 °C 20,0 °C 20,0 °C 20,6 °C 48 % 78 % 0 lf 200 cb 200 cb 200 cb 125 cb 1019,1 hPa 0,0 l/m² 0,0 km/h (0 Bft) SW 223 ° 0 min 0,025 mm 0,0 UV-I 0 W/m² 12,1 °C 15,9 °C 1,6 km/h (1 Bft) 95,76 %
03.09.2026 05:20 24,8 °C 15,6 °C 14,4 °C 15,5 °C 15,6 °C 18,3 °C 18,3 °C 20,0 °C 20,6 °C 20,6 °C 48 % 81 % 0 lf 200 cb 200 cb 200 cb 125 cb 1019,5 hPa 0,0 l/m² 0,5 km/h (0 Bft) O-NO 72 ° 0 min 0,025 mm 0,0 UV-I 0 W/m² 12,3 °C 15,6 °C 1,6 km/h (1 Bft) 96,15 %
03.09.2026 04:20 24,8 °C 15,8 °C 14,4 °C 15,8 °C 15,9 °C 18,9 °C 18,9 °C 20,6 °C 20,6 °C 20,6 °C 48 % 80 % 0 lf 200 cb 200 cb 200 cb 124 cb 1019,5 hPa 0,0 l/m² 0,0 km/h (0 Bft) NO 56 ° 0 min 0,026 mm 0,0 UV-I 0 W/m² 12,4 °C 15,8 °C 1,6 km/h (1 Bft) 98,25 %
03.09.2026 03:20 24,8 °C 16,1 °C 14,4 °C 16,1 °C 16,1 °C 18,9 °C 18,9 °C 20,6 °C 20,6 °C 20,6 °C 48 % 80 % 0 lf 200 cb 200 cb 200 cb 124 cb 1019,4 hPa 0,0 l/m² 1,0 km/h (0 Bft) O-SO 107 ° 0 min 0,025 mm 0,0 UV-I 0 W/m² 12,6 °C 16,1 °C 3,2 km/h (1 Bft) 91,80 %
03.09.2026 02:20 24,8 °C 16,4 °C 14,4 °C 16,3 °C 16,4 °C 19,4 °C 19,4 °C 20,6 °C 20,6 °C 20,6 °C 48 % 80 % 0 lf 200 cb 200 cb 200 cb 123 cb 1019,5 hPa 0,0 l/m² 0,0 km/h (0 Bft) O-SO 120 ° 0 min 0,001 mm 0,0 UV-I 0 W/m² 12,9 °C 16,4 °C 0,0 km/h (0 Bft) 94,50 %
03.09.2026 01:20 24,8 °C 17,3 °C 15,6 °C 17,2 °C 17,3 °C 19,4 °C 19,4 °C 21,1 °C 20,6 °C 20,6 °C 49 % 77 % 0 lf 200 cb 200 cb 200 cb 123 cb 1019,3 hPa 0,0 l/m² 0,1 km/h (0 Bft) SO 143 ° 0 min 0,025 mm 0,0 UV-I 0 W/m² 13,2 °C 17,3 °C 1,6 km/h (1 Bft) 91,96 %
03.09.2026 00:20 24,8 °C 17,7 °C 16,1 °C 17,7 °C 17,8 °C 20,0 °C 20,0 °C 21,1 °C 20,6 °C 20,6 °C 49 % 77 % 0 lf 200 cb 200 cb 200 cb 123 cb 1019,3 hPa 0,0 l/m² 0,0 km/h (0 Bft) O-SO 112 ° 0 min 0,000 mm 0,0 UV-I 0 W/m² 13,6 °C 17,7 °C 0,0 km/h (0 Bft) 93,69 %
02.09.2026 23:20 24,8 °C 18,8 °C 16,7 °C 18,8 °C 18,9 °C 20,6 °C 20,6 °C 21,1 °C 20,6 °C 20,6 °C 49 % 74 % 0 lf 200 cb 200 cb 200 cb 123 cb 1018,8 hPa 0,0 l/m² 0,6 km/h (0 Bft) O-SO 111 ° 0 min 0,025 mm 0,0 UV-I 0 W/m² 14,1 °C 18,8 °C 3,2 km/h (1 Bft) 95,04 %
02.09.2026 22:20 24,8 °C 18,9 °C 17,2 °C 18,8 °C 18,9 °C 20,6 °C 20,6 °C 21,1 °C 20,6 °C 20,6 °C 49 % 75 % 0 lf 200 cb 200 cb 200 cb 123 cb 1018,7 hPa 0,0 l/m² 0,0 km/h (0 Bft) S 178 ° 0 min 0,025 mm 0,0 UV-I 0 W/m² 14,4 °C 18,9 °C 1,6 km/h (1 Bft) 95,04 %
02.09.2026 21:20 24,9 °C 20,0 °C 18,3 °C 20,0 °C 20,2 °C 21,1 °C 21,1 °C 21,1 °C 20,6 °C 20,6 °C 48 % 72 % 0 lf 200 cb 200 cb 200 cb 122 cb 1018,3 hPa 0,0 l/m² 0,0 km/h (0 Bft) S-SO 151 ° 0 min 0,000 mm 0,0 UV-I 0 W/m² 14,8 °C 20,0 °C 0,0 km/h (0 Bft) 96,61 %
02.09.2026 20:20 25,1 °C 22,7 °C 20,0 °C 22,7 °C 22,9 °C 21,7 °C 21,7 °C 21,1 °C 20,6 °C 20,6 °C 47 % 60 % 0 lf 200 cb 200 cb 200 cb 122 cb 1017,6 hPa 0,0 l/m² 0,0 km/h (0 Bft) W-NW 297 ° 0 min 0,051 mm 0,0 UV-I 0 W/m² 14,5 °C 22,7 °C 0,0 km/h (0 Bft) 99,19 %
02.09.2026 19:20 25,0 °C 25,2 °C 23,9 °C 25,2 °C 25,3 °C 21,7 °C 21,7 °C 21,1 °C 20,0 °C 20,6 °C 48 % 51 % 0 lf 200 cb 200 cb 200 cb 121 cb 1017,1 hPa 0,0 l/m² 0,9 km/h (0 Bft) W 271 ° 0 min 0,102 mm 0,0 UV-I 40 W/m² 14,3 °C 25,2 °C 3,2 km/h (1 Bft) 91,67 %
02.09.2026 18:20 25,0 °C 26,1 °C 25,6 °C 26,1 °C 26,2 °C 21,7 °C 21,7 °C 21,1 °C 20,0 °C 20,6 °C 48 % 49 % 0 lf 200 cb 200 cb 200 cb 121 cb 1017,0 hPa 0,0 l/m² 2,5 km/h (1 Bft) S-SW 193 ° 35 min 0,152 mm 0,0 UV-I 121 W/m² 14,5 °C 26,1 °C 8,0 km/h (2 Bft) 98,20 %
02.09.2026 17:20 24,9 °C 26,1 °C 25,0 °C 25,9 °C 26,2 °C 21,7 °C 21,7 °C 20,6 °C 20,0 °C 20,6 °C 48 % 52 % 0 lf 200 cb 200 cb 200 cb 121 cb 1017,3 hPa 0,0 l/m² 3,3 km/h (1 Bft) W-SW 250 ° 60 min 0,254 mm 0,9 UV-I 197 W/m² 15,5 °C 26,1 °C 8,0 km/h (2 Bft) 97,44 %
02.09.2026 16:20 24,9 °C 26,4 °C 26,1 °C 26,4 °C 26,7 °C 22,2 °C 22,2 °C 20,6 °C 20,0 °C 20,6 °C 48 % 49 % 0 lf 200 cb 200 cb 200 cb 121 cb 1017,2 hPa 0,0 l/m² 4,7 km/h (1 Bft) SW 219 ° 60 min 0,356 mm 2,2 UV-I 272 W/m² 14,8 °C 26,4 °C 9,7 km/h (2 Bft) 94,64 %
02.09.2026 15:20 24,8 °C 27,0 °C 26,1 °C 26,8 °C 27,1 °C 22,2 °C 22,2 °C 20,0 °C 19,4 °C 20,6 °C 48 % 52 % 0 lf 200 cb 200 cb 200 cb 121 cb 1017,4 hPa 0,0 l/m² 6,5 km/h (2 Bft) N-NW 344 ° 20 min 0,457 mm 3,4 UV-I 705 W/m² 16,3 °C 27,0 °C 14,5 km/h (3 Bft) 95,87 %
02.09.2026 15:00 24,8 °C 26,6 °C 26,1 °C 26,4 °C 26,6 °C 22,2 °C 22,2 °C 20,0 °C 19,4 °C 20,6 °C 48 % 53 % 0 lf 200 cb 200 cb 200 cb 121 cb 1017,4 hPa 0,0 l/m² 4,5 km/h (1 Bft) N 355 ° 0 min 0,457 mm 3,2 UV-I 596 W/m² 16,2 °C 26,6 °C 14,5 km/h (3 Bft) 99,19 %
_ Min-Zeit 09:55 07:15 05:05 07:15 07:05 07:45 07:45 08:30 15:00 15:00 11:40 13:55 15:00 15:00 15:00 15:00 15:00 18:40 - 20:00 - - - - - - 07:30 07:00 20:05 07:00
Minimum _ 24,1 °C 15,1 °C 13,9 °C 15,1 °C 15,2 °C 17,8 °C 17,8 °C 19,4 °C 19,4 °C 20,6 °C 43 % 44 % 0 lf 200 cb 200 cb 200 cb 121 cb 1016,9 hPa - 0,0 km/h (0 Bft) - - - - - - 11,7 °C 15,2 °C 0,0 km/h (0 Bft) 88,89 %
_ Max-Zeit 19:05 14:20 15:40 14:20 14:20 15:00 15:00 17:30 20:20 15:00 21:30 00:55 15:00 15:00 15:00 15:00 09:10 09:15 15:00 15:05 - - 15:00 15:00 14:20 14:20 15:40 14:20 16:55 15:00
Maximum _ 25,1 °C 27,9 °C 27,8 °C 27,7 °C 27,9 °C 22,2 °C 22,2 °C 21,1 °C 20,6 °C 20,6 °C 49 % 81 % 0 lf 200 cb 200 cb 200 cb 126 cb 1019,9 hPa 0,0 l/m² 8,0 km/h
SW (2 Bft)
- - 5 min 0,457 mm 4,4 UV-I 766 W/m² 17,0 °C 27,8 °C 24,1 km/h
N-NW (4 Bft)
99,19 %
Durchschnitt _ 24,7 °C 21,3 °C 20,1 °C 21,2 °C 21,4 °C 20,3 °C 20,3 °C 20,4 °C 20,2 °C 20,6 °C 47 % 64 % 0 lf 200 cb 200 cb 200 cb 123 cb 1018,6 hPa #0,0 l/m² 2,2 km/h (1 Bft) SW - #5:50 h #1,880 mm 2,5 UV-I 359 W/m² 13,9 °C 21,3 °C 6,9 km/h (2 Bft) 95,88 %
copy; 2009 Dieter Kraft